Time;durP1;ratioP1;P1;durP2;ratioP2;P2;SDS_P1;SDS_P2;PMS_P1;PMS_P2;Temp;Humidity;BMP_temperature;BMP_pressure;BME280_temperature;BME280_humidity;BME280_pressure;Samples;Min_cycle;Max_cycle;Signal;HPM_P1;HPM_P2
2024/05/07 00:01:00;;;;;;;17.08;10.10;;;;;;;13.17;100.00;101094.91;10918947;26;20550;-16
2024/05/07 00:06:08;;;;;;;18.63;9.90;;;;;;;13.18;100.00;101097.25;10913319;26;20035;-17
2024/05/07 00:11:12;;;;;;;17.65;9.70;;;;;;;13.19;100.00;101101.53;10908869;26;20127;-17
2024/05/07 00:16:16;;;;;;;20.17;11.80;;;;;;;13.12;100.00;101105.88;10906361;26;24012;-16
2024/05/07 00:21:22;;;;;;;21.17;11.15;;;;;;;13.13;100.00;101102.06;10896125;26;20751;-15
2024/05/07 00:26:26;;;;;;;21.45;11.50;;;;;;;13.14;100.00;101106.34;10903659;26;20055;-15
2024/05/07 00:31:30;;;;;;;17.17;9.25;;;;;;;13.16;100.00;101117.59;10900677;26;20309;-16
2024/05/07 00:36:36;;;;;;;19.08;9.98;;;;;;;13.15;100.00;101118.72;10896092;26;20742;-17
2024/05/07 00:41:41;;;;;;;19.73;10.68;;;;;;;13.15;100.00;101122.19;10883844;26;20213;-17
2024/05/07 00:46:45;;;;;;;22.17;11.20;;;;;;;13.12;100.00;101128.25;10897433;26;20025;-15
2024/05/07 00:51:52;;;;;;;21.80;11.13;;;;;;;13.15;100.00;101138.38;10901010;26;20718;-17
2024/05/07 00:56:57;;;;;;;22.05;12.13;;;;;;;13.10;100.00;101137.78;10901072;26;20004;-16
2024/05/07 01:02:01;;;;;;;26.85;12.63;;;;;;;13.09;100.00;101136.19;10907335;26;20024;-17
2024/05/07 01:07:07;;;;;;;26.95;13.40;;;;;;;13.08;100.00;101142.69;10916194;26;21303;-17
2024/05/07 01:12:11;;;;;;;29.05;14.45;;;;;;;13.11;100.00;101150.13;10925832;26;20685;-16
2024/05/07 01:17:15;;;;;;;25.73;13.38;;;;;;;13.14;100.00;101144.88;10910460;26;20059;-16
2024/05/07 01:22:24;;;;;;;28.30;14.07;;;;;;;13.07;100.00;101147.31;10918759;26;20023;-17
2024/05/07 01:27:32;;;;;;;31.90;14.90;;;;;;;13.08;100.00;101148.88;10911817;26;20022;-17
2024/05/07 01:32:38;;;;;;;31.00;15.52;;;;;;;13.09;100.00;101152.38;10905979;26;20010;-16
2024/05/07 01:37:42;;;;;;;31.17;15.60;;;;;;;13.08;100.00;101159.66;10913865;26;20100;-16
2024/05/07 01:42:48;;;;;;;25.77;13.20;;;;;;;13.09;100.00;101166.66;10891912;26;20750;-16
2024/05/07 01:47:52;;;;;;;30.08;15.13;;;;;;;13.07;100.00;101162.69;10902432;26;20873;-16
2024/05/07 01:52:56;;;;;;;30.98;15.50;;;;;;;13.09;100.00;101163.94;10906538;26;24696;-17
2024/05/07 01:58:05;;;;;;;29.10;15.13;;;;;;;13.10;100.00;101179.00;10908096;26;20016;-16
2024/05/07 02:03:12;;;;;;;30.05;15.45;;;;;;;13.04;100.00;101176.81;10912666;26;20008;-17
2024/05/07 02:08:16;;;;;;;36.50;16.95;;;;;;;13.06;100.00;101180.00;10912491;26;20013;-17
2024/05/07 02:13:22;;;;;;;29.58;15.27;;;;;;;13.05;100.00;101184.59;10914693;26;24319;-17
2024/05/07 02:18:26;;;;;;;31.27;15.13;;;;;;;13.02;100.00;101193.31;10862055;26;20016;-16
2024/05/07 02:23:30;;;;;;;36.47;16.77;;;;;;;13.05;100.00;101191.88;10929160;26;20921;-16
2024/05/07 02:28:37;;;;;;;30.75;15.93;;;;;;;13.01;100.00;101186.34;10893906;26;22017;-17
2024/05/07 02:33:40;;;;;;;31.98;17.63;;;;;;;12.98;100.00;101191.59;10930156;26;20101;-17
2024/05/07 02:38:44;;;;;;;32.05;16.60;;;;;;;13.01;100.00;101199.84;10927682;26;20844;-16
2024/05/07 02:43:51;;;;;;;30.42;15.98;;;;;;;13.01;100.00;101205.22;10896502;26;20805;-16
2024/05/07 02:48:54;;;;;;;33.38;17.88;;;;;;;12.98;100.00;101211.25;10899650;26;22655;-16
2024/05/07 02:53:58;;;;;;;28.98;15.45;;;;;;;12.97;100.00;101206.19;10917055;26;20113;-16
2024/05/07 02:59:05;;;;;;;30.05;16.00;;;;;;;13.01;100.00;101216.00;10909680;26;20011;-16
2024/05/07 03:04:08;;;;;;;30.35;16.13;;;;;;;12.97;100.00;101217.78;10921606;26;20672;-16
2024/05/07 03:09:13;;;;;;;29.65;15.70;;;;;;;12.97;100.00;101219.69;10882022;26;20025;-16
2024/05/07 03:14:20;;;;;;;29.25;15.77;;;;;;;12.91;100.00;101217.16;10920809;26;20654;-16
2024/05/07 03:19:24;;;;;;;29.83;16.02;;;;;;;12.90;100.00;101220.97;10893460;26;20669;-16
2024/05/07 03:24:27;;;;;;;31.75;16.38;;;;;;;12.87;100.00;101221.59;10928009;26;21942;-15
2024/05/07 03:29:34;;;;;;;32.47;16.65;;;;;;;12.88;100.00;101230.50;10933983;26;20894;-15
2024/05/07 03:34:38;;;;;;;31.52;16.60;;;;;;;12.88;100.00;101228.59;10932762;26;20508;-16
2024/05/07 03:39:42;;;;;;;32.75;16.70;;;;;;;12.87;100.00;101235.09;10921814;26;20367;-15
2024/05/07 03:44:48;;;;;;;28.73;15.50;;;;;;;12.84;100.00;101243.81;10890433;26;20859;-17
2024/05/07 03:49:52;;;;;;;29.42;15.63;;;;;;;12.82;100.00;101243.34;10931913;26;20023;-16
2024/05/07 03:54:56;;;;;;;31.48;16.52;;;;;;;12.82;100.00;101256.81;10913553;26;20418;-17
2024/05/07 04:00:02;;;;;;;28.95;15.48;;;;;;;12.78;100.00;101258.59;10915099;26;20008;-16
2024/05/07 04:05:11;;;;;;;28.65;15.82;;;;;;;12.75;100.00;101266.53;10897949;26;20018;-17
2024/05/07 04:10:15;;;;;;;31.02;15.38;;;;;;;12.69;100.00;101276.66;10935026;26;20814;-17
2024/05/07 04:15:21;;;;;;;31.13;17.00;;;;;;;12.71;100.00;101282.53;10919729;26;20091;-17
2024/05/07 04:20:25;;;;;;;29.13;15.43;;;;;;;12.70;100.00;101277.47;10918701;26;20022;-17
2024/05/07 04:25:29;;;;;;;30.60;16.35;;;;;;;12.72;100.00;101286.81;10904954;26;20034;-17
2024/05/07 04:30:36;;;;;;;28.83;15.48;;;;;;;12.70;100.00;101285.56;10870631;26;20024;-17
2024/05/07 04:35:40;;;;;;;26.75;14.77;;;;;;;12.75;100.00;101296.97;10918529;26;20023;-17
2024/05/07 04:40:44;;;;;;;27.33;14.63;;;;;;;12.74;100.00;101297.28;10900165;26;20137;-17
2024/05/07 04:45:51;;;;;;;29.42;14.90;;;;;;;12.70;100.00;101307.09;10902167;26;20024;-17
2024/05/07 04:50:54;;;;;;;27.88;14.88;;;;;;;12.73;100.00;101311.88;10906091;26;20015;-17
2024/05/07 04:55:58;;;;;;;27.83;14.70;;;;;;;12.74;100.00;101326.94;10909726;26;24476;-16
2024/05/07 05:01:05;;;;;;;26.33;14.05;;;;;;;12.76;100.00;101328.19;10892572;26;20022;-16
2024/05/07 05:06:09;;;;;;;25.65;14.15;;;;;;;12.81;100.00;101336.13;10898578;26;20249;-17
2024/05/07 05:11:13;;;;;;;23.63;13.38;;;;;;;12.90;100.00;101339.59;10894191;26;20011;-17
2024/05/07 05:16:19;;;;;;;28.95;14.48;;;;;;;13.05;100.00;101357.19;10849758;26;20375;-17
2024/05/07 05:21:23;;;;;;;24.65;14.43;;;;;;;13.07;100.00;101354.97;10887522;26;20421;-18
2024/05/07 05:26:27;;;;;;;26.42;14.85;;;;;;;13.23;100.00;101369.53;10903984;26;20759;-17
2024/05/07 05:31:34;;;;;;;28.48;14.43;;;;;;;13.27;100.00;101369.69;10862329;26;20034;-16
2024/05/07 05:36:43;;;;;;;26.35;14.70;;;;;;;13.57;100.00;101378.66;10882777;26;20107;-17
2024/05/07 05:41:46;;;;;;;24.90;14.32;;;;;;;13.62;100.00;101386.59;10895630;26;20077;-16
2024/05/07 05:46:53;;;;;;;27.52;15.13;;;;;;;13.58;100.00;101399.16;10885570;26;20054;-16
2024/05/07 05:51:57;;;;;;;24.80;14.55;;;;;;;13.75;100.00;101393.72;10889868;26;21981;-15
2024/05/07 05:57:02;;;;;;;24.65;14.27;;;;;;;13.88;100.00;101398.13;10882325;26;20027;-17
2024/05/07 06:02:08;;;;;;;27.42;15.40;;;;;;;14.01;100.00;101403.63;10899514;26;20027;-17
2024/05/07 06:07:12;;;;;;;29.38;15.57;;;;;;;14.03;100.00;101409.50;10899368;26;20026;-16
2024/05/07 06:12:16;;;;;;;28.25;15.88;;;;;;;14.27;100.00;101417.78;10881273;26;24031;-17
2024/05/07 06:17:22;;;;;;;28.08;15.98;;;;;;;14.57;100.00;101428.59;10872988;26;20019;-20
2024/05/07 06:22:26;;;;;;;29.42;16.27;;;;;;;14.82;100.00;101427.63;10864820;26;20013;-19
2024/05/07 06:27:30;;;;;;;34.03;17.67;;;;;;;15.14;100.00;101431.53;10865058;26;20092;-19
2024/05/07 06:32:37;;;;;;;27.27;15.98;;;;;;;14.63;100.00;101438.91;10884415;26;20364;-19
2024/05/07 06:37:40;;;;;;;27.52;16.73;;;;;;;14.80;100.00;101435.28;10890880;26;20014;-19
2024/05/07 06:42:44;;;;;;;31.42;17.55;;;;;;;15.36;98.75;101449.34;10883964;26;20011;-19
2024/05/07 06:47:51;;;;;;;30.92;17.35;;;;;;;16.05;94.64;101459.41;10869458;26;20041;-16
2024/05/07 06:52:55;;;;;;;27.35;16.30;;;;;;;16.16;93.02;101466.03;10914928;26;20340;-15
2024/05/07 06:57:58;;;;;;;28.58;14.93;;;;;;;15.59;93.88;101476.81;10899418;26;20208;-17
2024/05/07 07:03:08;;;;;;;23.70;14.90;;;;;;;15.66;95.72;101483.28;10897361;26;20122;-17
2024/05/07 07:08:11;;;;;;;24.65;14.68;;;;;;;15.66;96.79;101487.91;10893616;26;20021;-17
2024/05/07 07:13:15;;;;;;;23.38;14.40;;;;;;;15.48;96.08;101498.13;10899297;26;20209;-18
2024/05/07 07:18:22;;;;;;;23.25;14.63;;;;;;;15.32;95.77;101503.34;10907871;26;20763;-16
2024/05/07 07:23:26;;;;;;;21.27;13.10;;;;;;;15.29;95.80;101514.84;10900088;26;20026;-17
2024/05/07 07:28:29;;;;;;;21.15;12.43;;;;;;;15.40;93.10;101517.94;10906897;26;21458;-17
2024/05/07 07:33:36;;;;;;;21.02;12.40;;;;;;;15.19;95.72;101520.63;10908727;26;20896;-17
2024/05/07 07:38:40;;;;;;;19.92;12.35;;;;;;;16.02;92.76;101534.03;10914828;26;20574;-17
2024/05/07 07:43:44;;;;;;;21.23;12.75;;;;;;;16.92;89.28;101541.25;10909886;26;20421;-18
2024/05/07 07:48:50;;;;;;;17.20;10.15;;;;;;;16.79;86.42;101536.97;10889024;26;20849;-17
2024/05/07 07:53:57;;;;;;;17.15;10.07;;;;;;;17.34;85.17;101549.13;10908325;26;22319;-18
2024/05/07 07:59:00;;;;;;;17.92;9.65;;;;;;;17.84;80.84;101558.66;10924249;26;20007;-18
2024/05/07 08:04:07;;;;;;;14.40;9.10;;;;;;;17.48;79.08;101557.66;10909148;26;22740;-16
2024/05/07 08:09:11;;;;;;;15.68;9.00;;;;;;;18.49;79.78;101575.53;10908670;26;20490;-17
2024/05/07 08:14:16;;;;;;;13.73;9.10;;;;;;;18.47;77.45;101572.38;10899873;26;20015;-21
2024/05/07 08:19:22;;;;;;;12.52;7.45;;;;;;;18.69;76.97;101579.09;10907562;26;20467;-18
2024/05/07 08:24:26;;;;;;;11.02;7.20;;;;;;;18.83;73.84;101576.75;10905926;26;20051;-18
2024/05/07 08:29:30;;;;;;;10.80;7.07;;;;;;;19.11;72.80;101584.75;10908210;26;21766;-18
2024/05/07 08:34:36;;;;;;;10.20;6.47;;;;;;;18.71;67.56;101588.53;10903817;26;20038;-16
2024/05/07 08:39:42;;;;;;;13.30;7.63;;;;;;;19.27;68.00;101593.69;10903932;26;23795;-17
2024/05/07 08:44:46;;;;;;;9.48;6.25;;;;;;;19.88;66.68;101601.97;10905842;26;20845;-17
2024/05/07 08:49:54;;;;;;;12.57;7.10;;;;;;;18.89;67.71;101614.22;10903024;26;20026;-17
2024/05/07 08:54:58;;;;;;;10.95;7.18;;;;;;;18.46;70.02;101625.97;10910674;26;21283;-18
2024/05/07 09:00:02;;;;;;;12.00;7.80;;;;;;;19.35;68.32;101622.66;10873413;26;20021;-17
2024/05/07 09:05:08;;;;;;;12.90;8.02;;;;;;;19.64;66.43;101631.47;10905356;26;20440;-17
2024/05/07 09:10:12;;;;;;;11.60;7.93;;;;;;;20.28;63.88;101630.00;10908910;26;20499;-18
2024/05/07 09:15:16;;;;;;;12.07;8.35;;;;;;;20.60;68.42;101636.84;10899316;26;21107;-18
2024/05/07 09:20:23;;;;;;;14.55;8.90;;;;;;;20.39;65.13;101634.50;10904424;26;20576;-18
2024/05/07 09:25:26;;;;;;;11.63;8.07;;;;;;;19.70;63.53;101639.00;10884057;26;20007;-17
2024/05/07 09:30:32;;;;;;;14.27;9.02;;;;;;;20.07;62.37;101641.31;10901762;26;20098;-17
2024/05/07 09:35:40;;;;;;;14.18;8.70;;;;;;;20.97;68.06;101645.25;10902121;26;20347;-21
2024/05/07 09:40:49;;;;;;;12.75;8.10;;;;;;;20.08;63.70;101646.41;10905195;26;21934;-20
2024/05/07 09:46:03;;;;;;;9.82;7.00;;;;;;;19.37;61.01;101658.53;10906239;26;24429;-21
2024/05/07 09:51:11;;;;;;;9.82;6.55;;;;;;;20.62;60.49;101655.56;10902058;26;20012;-21
2024/05/07 09:56:16;;;;;;;10.43;7.22;;;;;;;21.17;59.67;101665.06;10899420;26;23641;-22
2024/05/07 10:01:20;;;;;;;10.68;6.30;;;;;;;21.26;56.71;101667.53;10904549;26;21866;-21
2024/05/07 10:06:28;;;;;;;10.45;6.32;;;;;;;20.83;59.68;101670.38;10907713;26;20015;-21
2024/05/07 10:11:32;;;;;;;9.13;5.25;;;;;;;20.75;55.01;101673.34;10908431;26;20455;-21
2024/05/07 10:16:38;;;;;;;7.57;5.40;;;;;;;21.20;52.54;101680.72;10915529;26;22102;-21
2024/05/07 10:21:48;;;;;;;7.78;5.20;;;;;;;20.85;52.42;101686.38;10891644;26;22267;-21
2024/05/07 10:27:03;;;;;;;7.07;4.25;;;;;;;21.85;54.00;101687.91;10907696;26;20228;-20
2024/05/07 10:32:08;;;;;;;6.68;4.60;;;;;;;21.77;49.22;101685.06;10900416;26;20084;-20
2024/05/07 10:37:15;;;;;;;5.80;4.38;;;;;;;22.68;53.50;101691.97;10900434;26;20012;-21
2024/05/07 10:42:20;;;;;;;6.65;4.40;;;;;;;22.63;52.09;101697.78;10907499;26;20037;-20
2024/05/07 10:47:24;;;;;;;6.95;4.40;;;;;;;21.45;49.91;101690.09;10914186;26;20007;-20
2024/05/07 10:52:32;;;;;;;5.03;3.75;;;;;;;23.02;53.73;101694.59;10919335;26;20713;-20
2024/05/07 10:57:36;;;;;;;5.68;4.10;;;;;;;21.70;48.96;101698.63;10889012;26;20039;-21
2024/05/07 11:02:40;;;;;;;6.45;4.03;;;;;;;21.11;51.18;101688.38;10914943;26;21121;-21
2024/05/07 11:07:58;;;;;;;6.15;4.28;;;;;;;21.57;48.92;101701.97;10913426;26;20021;-21
2024/05/07 11:13:02;;;;;;;5.45;3.60;;;;;;;22.29;43.66;101709.94;10910739;26;20687;-20
2024/05/07 11:18:06;;;;;;;5.38;3.55;;;;;;;21.05;51.68;101714.44;10907129;26;20116;-21
2024/05/07 11:23:13;;;;;;;4.38;3.15;;;;;;;20.67;48.74;101707.94;10900559;26;20753;-21
2024/05/07 11:28:17;;;;;;;4.13;3.40;;;;;;;21.35;48.79;101709.84;10905840;26;20225;-21
2024/05/07 11:33:21;;;;;;;5.55;2.38;;;;;;;22.16;47.89;101716.78;10915386;26;20015;-21
2024/05/07 11:38:28;;;;;;;8.27;3.17;;;;;;;22.54;45.74;101708.25;10903375;26;20640;-21
2024/05/07 11:43:32;;;;;;;3.40;2.15;;;;;;;22.48;48.68;101701.53;10898111;26;21318;-21
2024/05/07 11:48:36;;;;;;;6.82;3.00;;;;;;;21.83;47.07;101706.63;10902187;26;20031;-20
2024/05/07 11:53:42;;;;;;;5.45;2.70;;;;;;;21.16;50.59;101718.91;10873668;26;20021;-21
2024/05/07 11:58:46;;;;;;;3.35;2.35;;;;;;;20.78;49.70;101713.56;10906931;26;20043;-20
2024/05/07 12:03:50;;;;;;;5.70;2.25;;;;;;;21.05;49.33;101711.69;10918290;26;20385;-21
2024/05/07 12:08:56;;;;;;;3.55;2.33;;;;;;;20.43;48.80;101711.75;10911818;26;20484;-22
2024/05/07 12:14:00;;;;;;;3.63;1.95;;;;;;;21.37;45.31;101712.22;10909790;26;23774;-22
2024/05/07 12:19:04;;;;;;;2.72;1.75;;;;;;;22.01;45.57;101713.09;10892253;26;20745;-21
2024/05/07 12:29:31;;;;;;;2.47;1.50;;;;;;;22.80;43.88;101717.50;10874250;26;20771;-21
2024/05/07 12:34:35;;;;;;;2.47;1.77;;;;;;;22.08;44.30;101730.38;10888338;26;20026;-21
2024/05/07 12:39:41;;;;;;;2.50;1.27;;;;;;;20.99;44.86;101743.22;10859355;26;20019;-20
2024/05/07 12:44:45;;;;;;;3.40;1.00;;;;;;;21.44;41.98;101732.25;10910072;26;20023;-21
2024/05/07 12:49:49;;;;;;;1.42;0.98;;;;;;;22.22;39.56;101735.28;10917044;26;20471;-21
2024/05/07 12:54:55;;;;;;;2.55;1.00;;;;;;;22.11;41.41;101729.66;10911367;26;20109;-21
2024/05/07 12:59:59;;;;;;;2.83;1.00;;;;;;;21.89;42.88;101740.69;10913269;26;20015;-21
2024/05/07 13:05:03;;;;;;;1.95;1.10;;;;;;;22.43;39.32;101742.94;10908392;26;22518;-20
2024/05/07 13:10:10;;;;;;;1.00;0.60;;;;;;;22.66;39.72;101740.84;10908829;26;20822;-21
2024/05/07 13:15:14;;;;;;;1.30;0.70;;;;;;;22.46;36.28;101746.88;10912094;26;20629;-20
2024/05/07 13:20:18;;;;;;;0.88;0.63;;;;;;;22.77;39.33;101748.38;10900392;26;20025;-21
2024/05/07 13:25:24;;;;;;;0.90;0.57;;;;;;;22.51;38.24;101752.78;10925778;26;20074;-21
2024/05/07 13:30:28;;;;;;;1.33;0.50;;;;;;;22.68;35.14;101744.00;10911518;26;20116;-21
2024/05/07 13:35:32;;;;;;;2.20;0.98;;;;;;;21.36;35.80;101752.44;10905299;26;20011;-21
2024/05/07 13:40:41;;;;;;;1.67;0.40;;;;;;;22.34;38.62;101767.88;10912174;26;20721;-21
2024/05/07 13:45:44;;;;;;;1.73;0.50;;;;;;;23.07;39.92;101754.53;10900399;26;20016;-21
2024/05/07 13:50:48;;;;;;;1.23;0.47;;;;;;;23.27;40.59;101755.88;10873257;26;20163;-21
2024/05/07 13:55:55;;;;;;;2.08;0.60;;;;;;;21.51;36.32;101764.38;10903126;26;20016;-21
2024/05/07 14:00:58;;;;;;;0.95;0.50;;;;;;;22.25;39.35;101755.63;10906677;26;20362;-21
2024/05/07 14:06:02;;;;;;;1.80;0.60;;;;;;;22.52;36.40;101756.31;10911860;26;20182;-21
2024/05/07 14:11:09;;;;;;;1.38;0.55;;;;;;;22.73;38.98;101760.09;10880504;26;20023;-21
2024/05/07 14:16:13;;;;;;;2.13;0.77;;;;;;;22.67;37.79;101749.84;10926518;26;20082;-21
2024/05/07 14:21:16;;;;;;;0.98;0.52;;;;;;;22.51;40.60;101766.47;10929579;26;20107;-21
2024/05/07 14:26:25;;;;;;;1.08;0.65;;;;;;;21.32;40.04;101765.25;10930215;26;21140;-21
2024/05/07 14:31:29;;;;;;;0.98;0.52;;;;;;;21.51;43.72;101778.03;10908337;26;20774;-21
2024/05/07 14:36:33;;;;;;;2.97;0.70;;;;;;;21.66;43.30;101773.56;10923491;26;20149;-22
2024/05/07 14:41:40;;;;;;;1.23;0.63;;;;;;;21.26;44.10;101785.81;10883507;26;20446;-21
2024/05/07 14:46:44;;;;;;;3.53;0.90;;;;;;;21.38;44.18;101785.66;10908291;26;20326;-21
2024/05/07 14:51:47;;;;;;;1.77;0.90;;;;;;;21.06;45.73;101784.31;10919479;26;20044;-22
2024/05/07 14:56:54;;;;;;;1.88;1.17;;;;;;;20.89;43.90;101785.56;10911271;26;20448;-21
2024/05/07 15:01:58;;;;;;;1.90;1.23;;;;;;;20.39;46.78;101795.50;10912934;26;20012;-21
2024/05/07 15:07:02;;;;;;;2.22;1.20;;;;;;;20.85;47.01;101790.16;10912204;26;20025;-21
2024/05/07 15:12:09;;;;;;;2.35;1.20;;;;;;;20.19;47.17;101805.63;10916619;26;24994;-21
2024/05/07 15:17:18;;;;;;;2.10;1.20;;;;;;;20.38;47.30;101802.09;10914977;26;20493;-21
2024/05/07 15:22:22;;;;;;;1.60;1.10;;;;;;;20.18;48.25;101795.06;10940150;26;20015;-20
2024/05/07 15:27:29;;;;;;;3.42;1.40;;;;;;;20.14;48.10;101805.09;10938301;26;20363;-20
2024/05/07 15:32:33;;;;;;;2.67;1.30;;;;;;;20.69;48.61;101814.03;10918532;26;20893;-20
2024/05/07 15:37:37;;;;;;;3.40;2.20;;;;;;;19.98;48.72;101821.50;10952106;26;20585;-20
2024/05/07 15:42:43;;;;;;;5.35;2.10;;;;;;;19.97;51.54;101821.84;10960484;26;20014;-20
2024/05/07 15:47:47;;;;;;;3.10;1.90;;;;;;;19.99;52.97;101814.88;10971554;26;20056;-21
2024/05/07 15:52:51;;;;;;;3.47;2.00;;;;;;;20.06;50.41;101822.47;10964405;26;20015;-20
2024/05/07 15:57:59;;;;;;;3.72;2.03;;;;;;;19.72;50.75;101829.47;10958148;26;20019;-20
2024/05/07 16:03:02;;;;;;;3.17;2.20;;;;;;;19.68;52.07;101842.22;10944377;26;20053;-20
2024/05/07 16:08:08;;;;;;;3.95;2.08;;;;;;;19.62;50.85;101838.19;10923774;26;21157;-21
2024/05/07 16:13:14;;;;;;;4.85;2.40;;;;;;;19.81;52.13;101847.22;10961071;26;20018;-20
2024/05/07 16:18:18;;;;;;;4.63;2.17;;;;;;;19.36;51.87;101850.38;10951257;26;20318;-20
2024/05/07 16:23:22;;;;;;;3.88;2.10;;;;;;;19.51;52.42;101855.03;10939124;26;20948;-20
2024/05/07 16:28:28;;;;;;;3.17;1.83;;;;;;;19.36;51.44;101853.09;10925357;26;20088;-20
2024/05/07 16:33:32;;;;;;;3.15;1.77;;;;;;;19.63;52.08;101867.00;10926593;26;20295;-20
2024/05/07 16:38:36;;;;;;;2.85;1.85;;;;;;;19.75;51.33;101866.91;10964314;26;20020;-20
2024/05/07 16:43:42;;;;;;;2.47;1.50;;;;;;;19.85;50.83;101872.63;10939205;26;20012;-21
2024/05/07 16:48:46;;;;;;;3.40;1.70;;;;;;;19.82;51.94;101878.00;10949244;26;20027;-21
2024/05/07 16:53:50;;;;;;;3.22;1.73;;;;;;;19.80;50.47;101885.72;10945088;26;20912;-20
2024/05/07 16:58:56;;;;;;;2.28;1.50;;;;;;;19.45;50.22;101877.44;10942049;26;20129;-21
2024/05/07 17:04:00;;;;;;;2.20;1.50;;;;;;;19.51;48.49;101882.28;10950401;26;20639;-21
2024/05/07 17:09:04;;;;;;;1.98;1.20;;;;;;;19.50;48.35;101885.34;10957221;26;20015;-20
2024/05/07 17:14:10;;;;;;;3.55;1.27;;;;;;;19.41;48.52;101888.25;10951847;26;20706;-20
2024/05/07 17:19:14;;;;;;;2.03;1.40;;;;;;;19.23;49.02;101897.91;10945661;26;20007;-20
2024/05/07 17:24:18;;;;;;;2.42;1.60;;;;;;;19.05;49.49;101904.78;10966449;26;20559;-21
2024/05/07 17:29:25;;;;;;;3.17;1.38;;;;;;;18.82;51.82;101910.75;10945149;26;22456;-21
2024/05/07 17:34:28;;;;;;;2.63;1.35;;;;;;;18.63;51.89;101907.84;10946168;26;20012;-20
2024/05/07 17:39:32;;;;;;;1.88;1.20;;;;;;;18.61;52.34;101908.19;10930497;26;23086;-21
2024/05/07 17:44:38;;;;;;;;;;;;;;;18.69;53.40;101913.84;10942414;26;20040;-20
2024/05/07 17:49:43;;;;;;;3.50;1.40;;;;;;;18.58;52.17;101929.84;10950102;26;21009;-21
2024/05/07 17:54:47;;;;;;;2.63;1.38;;;;;;;18.51;53.41;101930.44;10939651;26;20023;-22
2024/05/07 17:59:53;;;;;;;;;;;;;;;18.28;55.24;101938.28;10944752;26;20030;-20
2024/05/07 18:04:57;;;;;;;3.33;1.92;;;;;;;18.10;54.84;101945.06;10935323;26;19939;-20
2024/05/07 18:10:00;;;;;;;;;;;;;;;17.97;54.68;101946.19;10949551;26;20769;-20
2024/05/07 18:15:07;;;;;;;3.58;2.22;;;;;;;17.94;56.03;101958.53;10949498;26;19958;-20
2024/05/07 18:20:12;;;;;;;3.05;2.05;;;;;;;17.84;56.72;101960.88;10951091;26;20875;-20
2024/05/07 18:25:15;;;;;;;4.15;2.15;;;;;;;17.79;58.54;101966.53;10928121;26;20015;-20
2024/05/07 18:30:21;;;;;;;;;;;;;;;17.68;57.32;101977.84;10942660;26;23959;-20
2024/05/07 18:35:25;;;;;;;5.57;2.00;;;;;;;17.56;57.54;101980.53;10927130;26;20727;-21
2024/05/07 18:40:29;;;;;;;5.63;2.35;;;;;;;17.44;56.58;101983.19;10936717;26;20095;-20
2024/05/07 18:45:36;;;;;;;4.40;1.92;;;;;;;17.29;57.51;101991.97;10937942;26;20107;-20
2024/05/07 18:50:40;;;;;;;3.58;2.03;;;;;;;17.15;57.95;101996.84;10940668;26;20035;-19
2024/05/07 18:55:44;;;;;;;3.20;2.05;;;;;;;16.92;59.09;101994.44;10939456;26;20138;-19
2024/05/07 19:00:52;;;;;;;3.35;1.90;;;;;;;16.70;60.19;101998.28;10930421;26;20029;-20
2024/05/07 19:05:55;;;;;;;3.67;1.95;;;;;;;16.51;61.46;102003.34;10938228;26;20653;-20
2024/05/07 19:10:59;;;;;;;2.65;1.85;;;;;;;16.49;60.93;102018.34;10936519;26;20011;-20
2024/05/07 19:16:08;;;;;;;;;;;;;;;16.29;60.60;102025.28;10960824;26;20490;-20
2024/05/07 19:21:16;;;;;;;3.80;1.95;;;;;;;16.23;59.16;102029.31;10973462;26;19947;-19
2024/05/07 19:26:20;;;;;;;3.85;1.80;;;;;;;16.03;60.60;102033.47;10960490;26;20352;-21
2024/05/07 19:31:26;;;;;;;;;;;;;;;15.92;59.89;102043.06;10949933;26;20019;-21
2024/05/07 19:36:30;;;;;;;4.10;1.88;;;;;;;15.79;60.35;102051.06;10949658;26;19932;-21
2024/05/07 19:41:34;;;;;;;4.95;1.75;;;;;;;15.68;61.09;102051.72;10943520;26;20026;-20
2024/05/07 19:46:40;;;;;;;3.10;1.88;;;;;;;15.50;62.09;102064.47;10978537;26;20011;-21
2024/05/07 19:51:44;;;;;;;4.50;1.83;;;;;;;15.40;62.87;102071.00;10922673;26;20295;-21
2024/05/07 19:56:48;;;;;;;3.60;2.00;;;;;;;15.21;64.43;102073.19;10935302;26;20669;-21
2024/05/07 20:01:54;;;;;;;3.42;2.10;;;;;;;15.02;65.76;102092.44;10956095;26;20106;-20
2024/05/07 20:06:58;;;;;;;4.63;2.70;;;;;;;15.09;64.08;102103.59;10957696;26;20025;-20
2024/05/07 20:12:02;;;;;;;4.40;2.80;;;;;;;14.97;64.28;102108.00;10947859;26;20716;-20
2024/05/07 20:17:09;;;;;;;5.20;2.88;;;;;;;14.80;66.06;102112.22;10959108;26;27228;-20
2024/05/07 20:22:12;;;;;;;5.43;3.08;;;;;;;14.68;67.82;102113.94;10963404;26;20579;-20
2024/05/07 20:27:16;;;;;;;6.65;3.03;;;;;;;14.68;65.71;102124.75;10955388;26;20288;-21
2024/05/07 20:32:23;;;;;;;5.55;3.30;;;;;;;14.53;66.18;102126.75;10956151;26;20053;-19
2024/05/07 20:37:27;;;;;;;4.00;2.75;;;;;;;14.47;66.56;102132.63;10957772;26;20789;-19
2024/05/07 20:42:30;;;;;;;4.40;3.03;;;;;;;14.43;65.83;102129.72;10950758;26;20533;-20
2024/05/07 20:47:37;;;;;;;5.63;3.00;;;;;;;14.32;65.92;102133.78;10952289;26;20011;-20
2024/05/07 20:52:42;;;;;;;6.05;3.08;;;;;;;14.14;68.26;102137.47;10920585;26;20020;-19
2024/05/07 20:57:46;;;;;;;6.20;3.50;;;;;;;14.00;69.22;102134.84;10954621;26;20082;-20
2024/05/07 21:02:53;;;;;;;5.22;2.90;;;;;;;13.83;70.07;102146.31;10944767;26;20109;-20
2024/05/07 21:07:57;;;;;;;6.57;3.38;;;;;;;13.86;70.06;102148.41;10944819;26;20065;-20
2024/05/07 21:13:01;;;;;;;6.72;3.85;;;;;;;13.73;71.34;102160.06;10935273;26;20027;-20
2024/05/07 21:18:08;;;;;;;7.32;3.78;;;;;;;13.67;72.56;102155.88;10937675;26;20735;-21
2024/05/07 21:23:13;;;;;;;6.18;4.15;;;;;;;13.57;73.76;102162.28;10935329;26;20007;-19
2024/05/07 21:28:17;;;;;;;8.90;4.68;;;;;;;13.47;75.78;102164.38;10930445;26;20014;-21
2024/05/07 21:33:24;;;;;;;8.35;4.90;;;;;;;13.43;76.36;102158.78;10941185;26;20026;-19
2024/05/07 21:38:27;;;;;;;10.50;4.97;;;;;;;13.30;78.88;102161.50;10938064;26;20546;-20
2024/05/07 21:43:32;;;;;;;8.75;5.07;;;;;;;13.19;79.62;102167.09;10935462;26;20464;-20
2024/05/07 21:48:39;;;;;;;9.25;5.03;;;;;;;13.13;81.21;102165.59;10952194;26;24960;-20
2024/05/07 21:53:42;;;;;;;10.50;5.80;;;;;;;13.01;82.52;102168.00;10926588;26;20008;-20
2024/05/07 21:58:46;;;;;;;10.68;5.60;;;;;;;12.84;84.46;102181.28;10950263;26;20092;-19
2024/05/07 22:03:53;;;;;;;11.00;5.93;;;;;;;12.73;86.01;102191.47;10935835;26;20015;-20
2024/05/07 22:08:56;;;;;;;9.98;5.75;;;;;;;12.65;87.42;102188.66;10940556;26;20026;-20
2024/05/07 22:14:01;;;;;;;10.40;5.55;;;;;;;12.57;88.02;102198.19;10935165;26;20230;-20
2024/05/07 22:19:07;;;;;;;9.50;5.88;;;;;;;12.50;89.09;102201.25;10938348;26;20006;-19
2024/05/07 22:24:11;;;;;;;11.15;5.40;;;;;;;12.45;89.21;102203.25;10946973;26;20031;-19
2024/05/07 22:29:15;;;;;;;10.05;5.90;;;;;;;12.40;90.06;102214.91;10945070;26;20055;-19
2024/05/07 22:34:22;;;;;;;10.15;5.53;;;;;;;12.34;90.47;102217.97;10944486;26;25929;-20
2024/05/07 22:39:26;;;;;;;9.38;5.43;;;;;;;12.28;90.29;102222.66;10945676;26;20016;-20
2024/05/07 22:44:29;;;;;;;10.38;5.30;;;;;;;12.17;89.63;102221.19;10916597;26;20022;-20
2024/05/07 22:49:36;;;;;;;10.23;5.78;;;;;;;12.06;90.14;102215.16;10955619;26;20149;-20
2024/05/07 22:54:40;;;;;;;10.40;5.75;;;;;;;11.99;90.28;102225.47;10948517;26;22789;-20
2024/05/07 22:59:44;;;;;;;10.77;6.10;;;;;;;11.95;90.93;102221.78;10937771;26;20011;-20
2024/05/07 23:04:50;;;;;;;;;;;;;;;11.88;91.41;102227.53;10949194;26;20010;-20
2024/05/07 23:09:54;;;;;;;10.43;5.80;;;;;;;11.80;91.18;102227.38;10952337;26;19933;-20